ADDS METAR Data INFO
IDs: Format: Raw Decoded Include TAF

Data at: 1044 UTC 19 Oct 2017

KCVW 191035Z AUTO 08007KT 10SM CLR 19/17 A3011 RMK A01
KCVW 191015Z AUTO 08008KT 10SM CLR 19/17 A3011 RMK A01
KCVW 190950Z AUTO 08006KT 10SM FEW032 19/17 A3011 RMK A01
KCVW 190935Z AUTO 08006KT 10SM SCT031 19/17 A3010 RMK A01
KCVW 190915Z AUTO 08008KT 10SM OVC031 20/17 A3010 RMK A01
KCVW 190855Z AUTO 09007KT 10SM OVC032 20/17 A3010 RMK A01
KCVW 190835Z AUTO 08007KT 10SM OVC032 20/18 A3010 RMK A01
KCVW 190815Z AUTO 08007KT 10SM OVC032 20/18 A3011 RMK A01
KCVW 190755Z AUTO 08007KT 10SM OVC030 19/18 A3011 RMK A01
KCVW 190735Z AUTO 08007KT 10SM FEW025 SCT031 SCT037 19/18 A3011 RMK A01
KCVW 190715Z AUTO 08007KT 10SM FEW034 19/18 A3011 RMK A01
KCVW 190655Z AUTO 08006KT 10SM FEW031 SCT038 19/18 A3011 RMK A01
KCVW 190635Z AUTO 07008KT 10SM SCT032 SCT039 19/18 A3011 RMK A01
KCVW 190615Z AUTO 08008KT 10SM FEW025 SCT038 19/18 A3012 RMK A01
KCVW 190555Z AUTO 07006KT 10SM FEW037 19/19 A3012 RMK A01
KCVW 190535Z AUTO 05006KT 10SM BKN038 20/19 A3012 RMK A01
KCVW 190515Z AUTO 05005KT 10SM OVC040 19/19 A3013 RMK A01
KCVW 190455Z AUTO 05004KT 10SM SCT036 OVC042 19/19 A3013 RMK A01
KCVW 190435Z AUTO 04003KT 10SM BKN037 OVC042 19/18 A3014 RMK A01
KCVW 190415Z AUTO 04003KT 10SM OVC038 19/18 A3014 RMK A01
KCVW 190355Z AUTO 03003KT 10SM OVC038 19/18 A3014 RMK A01
KCVW 190335Z AUTO 02003KT 10SM OVC039 19/18 A3014 RMK A01
KCVW 190315Z AUTO 01003KT 10SM OVC039 19/17 A3014 RMK A01
KCVW 190255Z AUTO 00000KT 10SM BKN037 19/17 A3014 RMK A01
KCVW 190235Z AUTO 00000KT 10SM BKN038 20/17 A3014 RMK A01
KCVW 190215Z AUTO 36003KT 10SM OVC037 20/17 A3013 RMK A01
KCVW 190155Z AUTO 00000KT 10SM OVC035 21/18 A3013 RMK A01
KCVW 190135Z AUTO 00000KT 10SM OVC036 20/17 A3013 RMK A01
KCVW 190115Z AUTO 00000KT 10SM SCT036 23/18 A3013 RMK A01
KCVW 190055Z AUTO 17004KT 10SM CLR 22/18 A3012 RMK A01
KCVW 190035Z AUTO 00000KT 10SM CLR 21/17 A3012 RMK A01
KCVW 190015Z AUTO 00000KT 10SM CLR 21/17 A3011 RMK A01
KCVW 182355Z AUTO 00000KT 10SM CLR 23/18 A3011 RMK A01
KCVW 182335Z AUTO 00000KT 10SM CLR 23/17 A3010 RMK A01
KCVW 182315Z AUTO 19004KT 10SM CLR 24/17 A3010 RMK A01
KCVW 182255Z AUTO 21003KT 10SM CLR 24/17 A3010 RMK A01
KCVW 182235Z AUTO 19005KT 10SM CLR 24/17 A3010 RMK A01
KCVW 182215Z AUTO 18006KT 10SM CLR 24/17 A3010 RMK A01
KCVW 182155Z AUTO 19005KT 10SM CLR 24/17 A3010 RMK A01
KCVW 182135Z AUTO VRB04KT 10SM CLR 25/17 A3011 RMK A01
KCVW 182115Z AUTO 17004KT 10SM CLR 25/17 A3011 RMK A01
KCVW 182050Z AUTO 19007KT 10SM CLR 24/17 A3011 RMK A01
KCVW 182035Z AUTO 19006KT 10SM CLR 25/17 A3011 RMK A01
KCVW 182015Z AUTO 20005KT 10SM CLR 25/17 A3012 RMK A01
KCVW 181955Z AUTO 18006KT 10SM CLR 24/17 A3012 RMK A01
KCVW 181935Z AUTO 17006KT 10SM CLR 24/17 A3012 RMK A01
KCVW 181915Z AUTO 18006KT 10SM CLR 25/17 A3013 RMK A01
KCVW 181855Z AUTO 18006KT 10SM CLR 24/17 A3014 RMK A01
KCVW 181835Z AUTO 17006KT 10SM FEW032 24/17 A3015 RMK A01
KCVW 181815Z AUTO 15005G10KT 10SM BKN031 25/17 A3016 RMK A01
KCVW 181755Z AUTO 13004KT 10SM BKN031 25/17 A3016 RMK A01
KCVW 181735Z AUTO 13006KT 10SM FEW031 25/17 A3016 RMK A01
KCVW 181715Z AUTO 12008KT 10SM CLR 24/17 A3017 RMK A01
KCVW 181655Z AUTO 11006KT 10SM CLR 23/17 A3018 RMK A01
KCVW 181635Z AUTO VRB06G12KT 10SM FEW027 24/17 A3018 RMK A01
KCVW 181615Z AUTO 04007KT 10SM FEW027 23/17 A3018 RMK A01
KCVW 181555Z AUTO 05007KT 10SM CLR 23/17 A3018 RMK A01
KCVW 181535Z AUTO 06007G12KT 10SM CLR 22/17 A3018 RMK A01
KCVW 181515Z AUTO 08009KT 10SM CLR 22/17 A3018 RMK A01
KCVW 181455Z AUTO 06009KT 10SM CLR 21/16 A3018 RMK A01
KCVW 181435Z AUTO 05009KT 10SM CLR 20/16 A3018 RMK A01
KCVW 181415Z AUTO 05008KT 10SM CLR 19/16 A3017 RMK A01
KCVW 181355Z AUTO 06008KT 10SM CLR 18/16 A3017 RMK A01
KCVW 181335Z AUTO 05007KT 10SM CLR 17/15 A3016 RMK A01
KCVW 181315Z AUTO 05006KT 10SM CLR 17/15 A3015 RMK A01
KCVW 181255Z AUTO 05006KT 10SM CLR 16/14 A3014 RMK A01
KCVW 181235Z AUTO 04007KT 10SM CLR 15/14 A3014 RMK A01
KCVW 181215Z AUTO 04006KT 10SM CLR 15/14 A3014 RMK A01
KCVW 181155Z AUTO 04006KT 10SM SCT029 15/14 A3014 RMK A01
KCVW 181135Z AUTO 04007KT 10SM BKN028 15/14 A3013 RMK A01
KCVW 181115Z AUTO 05007KT 10SM BKN029 15/14 A3013 RMK A01
KCVW 181055Z AUTO 04006KT 10SM BKN029 15/14 A3013 RMK A01
KCVW 181035Z AUTO 05006KT 10SM BKN029 15/14 A3013 RMK A01
KCVW 181015Z AUTO 04006KT 10SM BKN030 15/14 A3013 RMK A01
KCVW 180955Z AUTO 04006KT 10SM OVC031 16/14 A3013 RMK A01
KCVW 180935Z AUTO 03006KT 10SM OVC031 15/14 A3013 RMK A01
KCVW 180915Z AUTO 04006KT 10SM BKN032 16/14 A3013 RMK A01
KCVW 180855Z AUTO 04006KT 10SM BKN032 16/14 A3014 RMK A01
KCVW 180835Z AUTO 03005KT 10SM SCT033 16/15 A3014 RMK A01
KCVW 180815Z AUTO 04005KT 10SM SCT033 16/14 A3014 RMK A01
KCVW 180755Z AUTO 04005KT 10SM BKN032 16/14 A3014 RMK A01
KCVW 180735Z AUTO 05006KT 10SM BKN031 16/14 A3014 RMK A01
KCVW 180715Z AUTO 04005KT 10SM BKN031 16/14 A3014 RMK A01
KCVW 180655Z AUTO 05005KT 10SM SCT031 16/13 A3014 RMK A01
KCVW 180635Z AUTO 05005KT 10SM FEW033 16/13 A3014 RMK A01
KCVW 180615Z AUTO 06005KT 10SM FEW033 15/13 A3014 RMK A01
KCVW 180555Z AUTO 04005KT 10SM FEW033 16/14 A3015 RMK A01
KCVW 180535Z AUTO 04005KT 10SM CLR 16/13 A3015 RMK A01
KCVW 180515Z AUTO 04003KT 10SM CLR 17/12 A3016 RMK A01
KCVW 180455Z AUTO 05004KT 10SM CLR 17/13 A3016 RMK A01
KCVW 180435Z AUTO 04004KT 10SM CLR 17/13 A3016 RMK A01
KCVW 180415Z AUTO 04004KT 10SM CLR 17/13 A3016 RMK A01
KCVW 180355Z AUTO 03004KT 10SM CLR 17/13 A3016 RMK A01
KCVW 180335Z AUTO 04004KT 10SM CLR 17/13 A3016 RMK A01
KCVW 180315Z AUTO 03004KT 10SM CLR 18/12 A3016 RMK A01
KCVW 180255Z AUTO 06005KT 10SM CLR 18/12 A3016 RMK A01
KCVW 180235Z AUTO 04005KT 10SM CLR 18/13 A3016 RMK A01
KCVW 180215Z AUTO 04005KT 10SM FEW030 18/13 A3015 RMK A01
KCVW 180155Z AUTO 04006KT 10SM SCT030 18/13 A3015 RMK A01
KCVW 180135Z AUTO 05005KT 10SM FEW033 18/13 A3015 RMK A01
KCVW 180115Z AUTO 05004KT 10SM BKN032 19/13 A3014 RMK A01
KCVW 180055Z AUTO 03003KT 10SM BKN031 19/13 A3014 RMK A01
KCVW 180035Z AUTO 03003KT 10SM FEW032 19/12 A3013 RMK A01
KCVW 180015Z AUTO 03003KT 10SM CLR 20/12 A3013 RMK A01
KCVW 172355Z AUTO 03004KT 10SM CLR 21/11 A3012 RMK A01
KCVW 172335Z AUTO 04004KT 10SM CLR 21/12 A3011 RMK A01
KCVW 172315Z AUTO 02005KT 10SM CLR 22/11 A3011 RMK A01
KCVW 172255Z AUTO 03005KT 10SM CLR 23/09 A3011 RMK A01